createdAt,value
2023-03-10T00:01:51.378Z,11
2023-03-10T00:04:39.456Z,18
2023-03-10T00:07:27.261Z,9
2023-03-10T00:10:15.094Z,24
2023-03-10T00:13:02.977Z,10
2023-03-10T00:15:50.843Z,16
2023-03-10T00:18:38.815Z,11
2023-03-10T00:21:26.536Z,9
2023-03-10T00:24:14.311Z,27
2023-03-10T00:27:02.096Z,17
2023-03-10T00:29:49.874Z,7
2023-03-10T00:32:37.841Z,24
2023-03-10T00:35:25.673Z,7
2023-03-10T00:38:13.828Z,12
2023-03-10T00:41:01.696Z,6
2023-03-10T00:43:49.460Z,22
2023-03-10T00:46:37.204Z,15
2023-03-10T00:49:25.078Z,18
2023-03-10T00:52:12.962Z,20
2023-03-10T00:55:00.874Z,27
2023-03-10T00:57:48.788Z,17
2023-03-10T01:00:36.728Z,14
2023-03-10T01:03:24.608Z,23
2023-03-10T01:06:12.656Z,6
2023-03-10T01:09:00.391Z,26
2023-03-10T01:11:48.444Z,23
2023-03-10T01:14:36.415Z,16
2023-03-10T01:17:24.502Z,7
2023-03-10T01:20:12.387Z,13
2023-03-10T01:23:00.733Z,16
2023-03-10T01:25:48.823Z,19
2023-03-10T01:28:38.600Z,12
2023-03-10T01:31:26.676Z,17
2023-03-10T01:34:14.600Z,4
2023-03-10T01:37:02.458Z,23
2023-03-10T01:39:50.340Z,28
2023-03-10T01:42:38.131Z,11
2023-03-10T01:45:25.985Z,8
2023-03-10T01:48:13.946Z,14
2023-03-10T01:51:01.678Z,11
2023-03-10T01:53:49.456Z,33
2023-03-10T01:56:37.908Z,24
2023-03-10T01:59:25.738Z,24
2023-03-10T02:02:13.740Z,13
2023-03-10T02:05:01.653Z,1
2023-03-10T02:07:49.601Z,5
2023-03-10T02:10:37.290Z,6
2023-03-10T02:13:25.143Z,10
2023-03-10T02:16:12.861Z,18
2023-03-10T02:19:00.970Z,17
2023-03-10T02:21:48.817Z,17
2023-03-10T02:24:37.736Z,17
2023-03-10T02:27:25.374Z,11
2023-03-10T02:30:13.238Z,26
2023-03-10T02:33:00.932Z,13
2023-03-10T02:35:48.826Z,15
2023-03-10T02:38:36.626Z,15
2023-03-10T02:41:24.443Z,4
2023-03-10T02:44:12.227Z,4
2023-03-10T02:47:00.101Z,19
2023-03-10T02:49:47.942Z,9
2023-03-10T02:52:35.813Z,22
2023-03-10T02:55:23.865Z,13
2023-03-10T02:58:11.693Z,2
2023-03-10T03:00:59.498Z,6
2023-03-10T03:03:47.778Z,13
2023-03-10T03:06:35.965Z,5
2023-03-10T03:09:23.725Z,7
2023-03-10T03:12:11.595Z,13
2023-03-10T03:14:59.382Z,10
2023-03-10T03:17:47.117Z,8
2023-03-10T03:20:34.828Z,21
2023-03-10T03:23:22.562Z,6
2023-03-10T03:26:10.388Z,1
2023-03-10T03:28:58.259Z,26
2023-03-10T03:31:46.176Z,24
2023-03-10T03:34:34.053Z,11
2023-03-10T03:37:22.807Z,18
2023-03-10T03:40:10.590Z,14
2023-03-10T03:42:58.599Z,3
2023-03-10T03:45:46.601Z,16
2023-03-10T03:48:34.785Z,19
2023-03-10T03:51:22.469Z,9
2023-03-10T03:54:10.278Z,12
2023-03-10T03:56:58.107Z,22
2023-03-10T03:59:46.026Z,4
2023-03-10T04:02:34.031Z,5
2023-03-10T04:05:21.882Z,9
2023-03-10T04:08:09.676Z,5
2023-03-10T04:10:57.539Z,19
2023-03-10T04:13:45.422Z,10
2023-03-10T04:16:33.368Z,26
2023-03-10T04:19:21.223Z,10
2023-03-10T04:22:26.941Z,21
2023-03-10T04:25:14.580Z,0
2023-03-10T04:28:05.124Z,20
2023-03-10T04:30:53.517Z,15
2023-03-10T04:33:41.653Z,14
2023-03-10T04:36:29.548Z,14
2023-03-10T04:39:17.185Z,3
2023-03-10T04:42:07.827Z,8
2023-03-10T04:44:59.097Z,15
2023-03-10T04:47:46.779Z,23
2023-03-10T04:50:34.660Z,12
2023-03-10T04:53:22.649Z,9
2023-03-10T04:56:10.473Z,13
2023-03-10T04:58:58.277Z,12
2023-03-10T05:01:46.213Z,13
2023-03-10T05:04:34.355Z,5
2023-03-10T05:07:22.235Z,14
2023-03-10T05:10:09.946Z,3
2023-03-10T05:12:57.840Z,13
2023-03-10T05:15:45.610Z,15
2023-03-10T05:18:33.713Z,23
2023-03-10T05:21:21.402Z,3
2023-03-10T05:24:09.193Z,28
2023-03-10T05:26:57.213Z,24
2023-03-10T05:29:45.672Z,38
2023-03-10T05:32:33.509Z,59
2023-03-10T05:35:21.385Z,87
2023-03-10T05:38:09.720Z,109
2023-03-10T05:40:58.662Z,152
2023-03-10T05:43:46.534Z,189
2023-03-10T05:46:35.050Z,229
2023-03-10T05:49:23.170Z,238
2023-03-10T05:52:11.036Z,278
2023-03-10T05:55:01.718Z,314
2023-03-10T05:57:49.722Z,376
2023-03-10T06:00:37.732Z,465
2023-03-10T06:03:25.701Z,548
2023-03-10T06:06:13.862Z,656
2023-03-10T06:09:01.747Z,730
2023-03-10T06:11:49.479Z,772
2023-03-10T06:14:37.365Z,789
2023-03-10T06:17:25.248Z,805
2023-03-10T06:20:13.031Z,812
2023-03-10T06:23:00.717Z,769
2023-03-10T06:25:48.501Z,772
2023-03-10T06:28:36.226Z,776
2023-03-10T06:31:24.222Z,808
2023-03-10T06:34:12.312Z,803
2023-03-10T06:37:00.194Z,804
2023-03-10T06:39:47.876Z,814
2023-03-10T06:42:35.740Z,844
2023-03-10T06:45:23.439Z,857
2023-03-10T06:48:11.658Z,863
2023-03-10T06:50:59.622Z,889
2023-03-10T06:53:47.415Z,912
2023-03-10T06:56:35.251Z,912
2023-03-10T06:59:22.977Z,916
2023-03-10T07:02:10.804Z,902
2023-03-10T07:04:58.925Z,870
2023-03-10T07:07:47.037Z,848
2023-03-10T07:10:34.976Z,835
2023-03-10T07:13:22.755Z,834
2023-03-10T07:16:10.397Z,853
2023-03-10T07:18:58.476Z,854
2023-03-10T07:21:46.430Z,878
2023-03-10T07:24:34.191Z,881
2023-03-10T07:27:22.128Z,907
2023-03-10T07:30:09.917Z,927
2023-03-10T07:32:57.972Z,942
2023-03-10T07:35:45.788Z,945
2023-03-10T07:38:33.831Z,927
2023-03-10T07:41:21.762Z,906
2023-03-10T07:44:09.654Z,909
2023-03-10T07:46:57.349Z,921
2023-03-10T07:49:45.212Z,941
2023-03-10T07:52:32.947Z,941
2023-03-10T07:55:20.902Z,943
2023-03-10T07:58:08.693Z,954
2023-03-10T08:00:56.530Z,947
2023-03-10T08:03:44.472Z,944
2023-03-10T08:06:32.730Z,938
2023-03-10T08:09:20.517Z,933
2023-03-10T08:12:08.523Z,899
2023-03-10T08:14:56.386Z,909
2023-03-10T08:17:44.174Z,917
2023-03-10T08:20:31.902Z,918
2023-03-10T08:23:19.787Z,932
2023-03-10T08:26:07.516Z,941
2023-03-10T08:28:55.325Z,956
2023-03-10T08:31:43.574Z,969
2023-03-10T08:34:31.530Z,972
2023-03-10T08:37:19.308Z,984
2023-03-10T08:40:07.406Z,989
2023-03-10T08:42:55.606Z,993
2023-03-10T08:45:43.459Z,987
2023-03-10T08:48:31.522Z,992
2023-03-10T08:51:19.374Z,992
2023-03-10T08:54:07.244Z,991
2023-03-10T08:56:54.982Z,1008
2023-03-10T08:59:42.813Z,1003
2023-03-10T09:02:30.923Z,1005
2023-03-10T09:05:20.761Z,998
2023-03-10T09:08:09.492Z,1003
2023-03-10T09:10:57.372Z,977
2023-03-10T09:13:45.166Z,985
2023-03-10T09:16:36.748Z,992
2023-03-10T09:19:24.585Z,980
2023-03-10T09:22:12.599Z,984
2023-03-10T09:25:00.880Z,999
2023-03-10T09:27:48.665Z,998
2023-03-10T09:30:38.320Z,999
2023-03-10T09:33:25.989Z,994
2023-03-10T09:36:13.933Z,984
2023-03-10T09:39:01.808Z,973
2023-03-10T09:41:49.590Z,993
2023-03-10T09:44:57.245Z,992
2023-03-10T09:47:45.233Z,1001
2023-03-10T09:50:32.989Z,986
2023-03-10T09:53:20.867Z,997
2023-03-10T09:56:09.320Z,1002
2023-03-10T09:58:57.128Z,994
2023-03-10T10:01:44.844Z,997
2023-03-10T10:04:32.747Z,1015
2023-03-10T10:07:23.652Z,1006
2023-03-10T10:10:11.527Z,1009
2023-03-10T10:12:59.275Z,999
2023-03-10T10:15:46.996Z,985
2023-03-10T10:18:54.288Z,984
2023-03-10T10:21:43.049Z,986
2023-03-10T10:24:31.033Z,991
2023-03-10T10:27:21.204Z,1001
2023-03-10T10:30:09.423Z,983
2023-03-10T10:32:57.360Z,976
2023-03-10T10:35:45.194Z,967
2023-03-10T10:38:33.032Z,978
2023-03-10T10:41:20.802Z,982
2023-03-10T10:44:08.566Z,980
2023-03-10T10:46:56.300Z,980
2023-03-10T10:49:44.116Z,971
2023-03-10T10:52:31.887Z,989
2023-03-10T10:55:19.772Z,977
2023-03-10T10:58:07.449Z,972
2023-03-10T11:00:55.329Z,958
2023-03-10T11:03:43.637Z,951
2023-03-10T11:06:31.342Z,958
2023-03-10T11:09:19.011Z,966
2023-03-10T11:12:07.033Z,974
2023-03-10T11:14:57.199Z,969
2023-03-10T11:17:45.602Z,956
2023-03-10T11:20:33.409Z,936
2023-03-10T11:23:21.139Z,932
2023-03-10T11:26:08.928Z,954
2023-03-10T11:28:56.811Z,969
2023-03-10T11:31:44.697Z,935
2023-03-10T11:34:32.504Z,929
2023-03-10T11:37:20.361Z,921
2023-03-10T11:40:08.220Z,913
2023-03-10T11:42:56.027Z,906
2023-03-10T11:45:43.782Z,897
2023-03-10T11:48:31.747Z,902
2023-03-10T11:51:19.453Z,905
2023-03-10T11:54:07.317Z,893
2023-03-10T11:56:55.075Z,914
2023-03-10T11:59:42.777Z,934
2023-03-10T12:02:30.567Z,953
2023-03-10T12:05:18.407Z,958
2023-03-10T12:08:06.667Z,967
2023-03-10T12:10:54.523Z,969
2023-03-10T12:13:42.305Z,965
2023-03-10T12:16:30.080Z,960
2023-03-10T12:19:17.927Z,967
2023-03-10T12:22:05.604Z,953
2023-03-10T12:24:53.260Z,964
2023-03-10T12:27:41.024Z,954
2023-03-10T12:30:28.858Z,942
2023-03-10T12:33:16.529Z,937
2023-03-10T12:36:04.410Z,952
2023-03-10T12:38:52.351Z,962
2023-03-10T12:41:40.003Z,950
2023-03-10T12:44:27.701Z,945
2023-03-10T12:47:15.400Z,951
2023-03-10T12:50:03.244Z,937
2023-03-10T12:52:50.958Z,952
2023-03-10T12:55:38.799Z,968
2023-03-10T12:58:26.450Z,967
2023-03-10T13:01:14.416Z,963
2023-03-10T13:04:15.763Z,965
2023-03-10T13:07:03.773Z,954
2023-03-10T13:09:51.688Z,938
2023-03-10T13:12:39.476Z,935
2023-03-10T13:15:27.247Z,941
2023-03-10T13:18:15.091Z,966
2023-03-10T13:21:02.760Z,943
2023-03-10T13:23:50.459Z,965
2023-03-10T13:26:38.083Z,937
2023-03-10T13:29:25.737Z,944
2023-03-10T13:32:13.593Z,937
2023-03-10T13:35:01.563Z,944
2023-03-10T13:37:49.269Z,938
2023-03-10T13:40:36.850Z,937
2023-03-10T13:43:24.493Z,932
2023-03-10T13:46:12.328Z,940
2023-03-10T13:49:00.042Z,944
2023-03-10T13:51:47.879Z,953
2023-03-10T13:54:35.557Z,933
2023-03-10T13:57:23.186Z,920
2023-03-10T14:00:11.021Z,933
2023-03-10T14:02:58.827Z,943
2023-03-10T14:05:46.646Z,937
2023-03-10T14:08:34.684Z,919
2023-03-10T14:11:22.581Z,901
2023-03-10T14:14:10.443Z,900
2023-03-10T14:16:58.386Z,898
2023-03-10T14:19:46.287Z,839
2023-03-10T14:22:34.073Z,897
2023-03-10T14:25:21.811Z,899
2023-03-10T14:28:09.513Z,902
2023-03-10T14:30:57.262Z,908
2023-03-10T14:33:45.331Z,904
2023-03-10T14:36:33.126Z,908
2023-03-10T14:39:20.926Z,878
2023-03-10T14:42:08.695Z,878
2023-03-10T14:44:56.383Z,863
2023-03-10T14:47:44.344Z,863
2023-03-10T14:50:32.848Z,869
2023-03-10T14:53:20.534Z,875
2023-03-10T14:56:08.252Z,898
2023-03-10T14:58:56.200Z,933
2023-03-10T15:01:44.008Z,943
2023-03-10T15:04:31.916Z,953
2023-03-10T15:07:19.944Z,941
2023-03-10T15:10:11.787Z,913
2023-03-10T15:12:59.707Z,895
2023-03-10T15:15:47.549Z,916
2023-03-10T15:18:35.547Z,931
2023-03-10T15:21:23.258Z,955
2023-03-10T15:24:11.068Z,939
2023-03-10T15:26:59.135Z,942
2023-03-10T15:29:46.874Z,926
2023-03-10T15:32:34.718Z,902
2023-03-10T15:35:22.412Z,883
2023-03-10T15:38:10.337Z,879
2023-03-10T15:40:58.175Z,857
2023-03-10T15:43:46.005Z,849
2023-03-10T15:46:33.834Z,836
2023-03-10T15:49:22.085Z,762
2023-03-10T15:52:09.818Z,794
2023-03-10T15:54:57.610Z,782
2023-03-10T15:57:45.286Z,728
2023-03-10T16:00:33.012Z,754
2023-03-10T16:03:20.724Z,785
2023-03-10T16:06:08.584Z,781
2023-03-10T16:08:56.216Z,790
2023-03-10T16:11:43.937Z,827
2023-03-10T16:14:31.515Z,809
2023-03-10T16:17:19.278Z,860
2023-03-10T16:20:06.921Z,820
2023-03-10T16:22:54.785Z,821
2023-03-10T16:25:42.395Z,811
2023-03-10T16:28:30.275Z,833
2023-03-10T16:31:17.937Z,783
2023-03-10T16:34:06.221Z,790
2023-03-10T16:36:54.010Z,802
2023-03-10T16:39:41.871Z,785
2023-03-10T16:42:29.546Z,749
2023-03-10T16:45:17.228Z,711
2023-03-10T16:48:05.113Z,698
2023-03-10T16:50:52.898Z,695
2023-03-10T16:53:40.653Z,702
2023-03-10T16:56:28.582Z,670
2023-03-10T16:59:18.218Z,666
2023-03-10T17:02:06.127Z,647
2023-03-10T17:04:53.759Z,637
2023-03-10T17:07:53.500Z,584
2023-03-10T17:10:44.281Z,575
2023-03-10T17:13:32.316Z,557
2023-03-10T17:16:20.102Z,532
2023-03-10T17:19:08.340Z,459
2023-03-10T17:21:55.882Z,428
2023-03-10T17:24:44.012Z,411
2023-03-10T17:27:31.778Z,378
2023-03-10T17:30:19.642Z,391
2023-03-10T17:33:07.259Z,350
2023-03-10T17:35:55.049Z,304
2023-03-10T17:38:42.619Z,241
2023-03-10T17:41:30.306Z,207
2023-03-10T17:44:17.954Z,186
2023-03-10T17:47:05.920Z,157
2023-03-10T17:49:53.576Z,119
2023-03-10T17:52:41.384Z,99
2023-03-10T17:55:29.167Z,95
2023-03-10T17:58:16.772Z,76
2023-03-10T18:01:04.410Z,75
2023-03-10T18:03:52.264Z,62
2023-03-10T18:06:39.981Z,48
2023-03-10T18:09:27.929Z,39
2023-03-10T18:12:15.482Z,56
2023-03-10T18:15:03.306Z,33
2023-03-10T18:17:51.256Z,46
2023-03-10T18:20:39.019Z,43
2023-03-10T18:23:26.642Z,82
2023-03-10T18:26:14.384Z,46
2023-03-10T18:29:02.103Z,48
2023-03-10T18:31:49.888Z,56
2023-03-10T18:34:37.846Z,38
2023-03-10T18:37:25.759Z,26
2023-03-10T18:40:13.395Z,46
2023-03-10T18:43:01.119Z,47
2023-03-10T18:45:48.703Z,47
2023-03-10T18:48:36.739Z,33
2023-03-10T18:51:24.490Z,37
2023-03-10T18:54:12.367Z,44
2023-03-10T18:57:00.088Z,35
2023-03-10T18:59:47.882Z,37
2023-03-10T19:02:35.691Z,27
2023-03-10T19:05:23.691Z,45
2023-03-10T19:08:11.354Z,37
2023-03-10T19:10:59.230Z,34
2023-03-10T19:13:47.447Z,30
2023-03-10T19:16:35.102Z,33
2023-03-10T19:19:22.623Z,31
2023-03-10T19:22:10.284Z,35
2023-03-10T19:24:57.900Z,35
2023-03-10T19:27:45.756Z,27
2023-03-10T19:30:33.487Z,32
2023-03-10T19:33:21.424Z,66
2023-03-10T19:36:11.638Z,46
2023-03-10T19:38:59.544Z,28
2023-03-10T19:41:47.197Z,36
2023-03-10T19:44:34.909Z,21
2023-03-10T19:47:22.592Z,30
2023-03-10T19:50:10.270Z,33
2023-03-10T19:52:57.908Z,28
2023-03-10T19:55:45.664Z,41
2023-03-10T19:58:33.370Z,21
2023-03-10T20:01:21.400Z,18
2023-03-10T20:04:09.273Z,37
2023-03-10T20:06:56.918Z,35
2023-03-10T20:09:44.454Z,28
2023-03-10T20:12:32.231Z,25
2023-03-10T20:15:19.852Z,24
2023-03-10T20:18:07.644Z,31
2023-03-10T20:20:55.326Z,45
2023-03-10T20:23:42.902Z,42
2023-03-10T20:26:30.431Z,37
2023-03-10T20:29:18.207Z,25
2023-03-10T20:32:06.048Z,28
2023-03-10T20:34:54.029Z,42
2023-03-10T20:37:41.864Z,23
2023-03-10T20:40:29.801Z,24
2023-03-10T20:43:17.581Z,41
2023-03-10T20:46:05.310Z,29
2023-03-10T20:48:53.021Z,30
2023-03-10T20:51:40.930Z,28
2023-03-10T20:54:28.561Z,31
2023-03-10T20:57:16.699Z,34
2023-03-10T21:00:04.283Z,26
2023-03-10T21:02:52.065Z,29
2023-03-10T21:05:39.698Z,29
2023-03-10T21:08:27.524Z,33
2023-03-10T21:11:15.207Z,32
2023-03-10T21:14:03.041Z,28
2023-03-10T21:16:50.609Z,26
2023-03-10T21:19:38.407Z,32
2023-03-10T21:22:26.111Z,30
2023-03-10T21:25:13.880Z,32
2023-03-10T21:28:01.500Z,32
2023-03-10T21:30:49.338Z,7
2023-03-10T21:33:37.226Z,31
2023-03-10T21:36:25.059Z,22
2023-03-10T21:39:12.623Z,37
2023-03-10T21:42:00.631Z,29
2023-03-10T21:44:48.284Z,19
2023-03-10T21:47:36.117Z,22
2023-03-10T21:50:23.821Z,31
2023-03-10T21:53:11.753Z,34
2023-03-10T21:55:59.565Z,24
2023-03-10T21:58:47.345Z,33
2023-03-10T22:01:36.163Z,20
2023-03-10T22:04:24.085Z,31
2023-03-10T22:07:12.209Z,34
2023-03-10T22:09:59.944Z,22
2023-03-10T22:12:47.747Z,29
2023-03-10T22:15:35.916Z,27
2023-03-10T22:18:23.796Z,23
2023-03-10T22:21:11.444Z,21
2023-03-10T22:23:59.270Z,27
2023-03-10T22:26:46.999Z,29
2023-03-10T22:29:34.706Z,26
2023-03-10T22:32:22.490Z,27
2023-03-10T22:35:10.653Z,21
2023-03-10T22:37:58.561Z,24
2023-03-10T22:40:46.376Z,22
2023-03-10T22:43:34.260Z,25
2023-03-10T22:46:22.168Z,26
2023-03-10T22:49:10.443Z,18
2023-03-10T22:51:58.382Z,25
2023-03-10T22:54:46.202Z,30
2023-03-10T22:57:33.892Z,21
2023-03-10T23:00:21.826Z,26
2023-03-10T23:03:09.528Z,27
2023-03-10T23:05:57.449Z,23
2023-03-10T23:08:45.237Z,22
2023-03-10T23:11:33.009Z,17
2023-03-10T23:14:20.794Z,13
2023-03-10T23:17:08.527Z,24
2023-03-10T23:19:56.330Z,24
2023-03-10T23:22:44.244Z,19
2023-03-10T23:25:32.139Z,20
2023-03-10T23:28:20.303Z,15
2023-03-10T23:31:08.033Z,25
2023-03-10T23:33:56.095Z,15
2023-03-10T23:36:43.912Z,23
2023-03-10T23:39:31.711Z,14
2023-03-10T23:42:19.438Z,21
2023-03-10T23:45:07.271Z,21
2023-03-10T23:47:55.112Z,21
2023-03-10T23:50:42.839Z,24
2023-03-10T23:53:30.615Z,7
2023-03-10T23:56:18.482Z,22
2023-03-10T23:59:06.242Z,19
